createdAt,value
2023-06-16T00:00:41.520Z,29.68
2023-06-16T00:01:41.548Z,29.68
2023-06-16T00:02:41.526Z,29.66
2023-06-16T00:03:41.613Z,29.72
2023-06-16T00:04:41.543Z,29.70
2023-06-16T00:05:41.548Z,29.76
2023-06-16T00:06:41.573Z,29.72
2023-06-16T00:07:41.612Z,29.72
2023-06-16T00:08:41.618Z,29.73
2023-06-16T00:09:41.587Z,29.78
2023-06-16T00:10:41.629Z,29.74
2023-06-16T00:11:41.599Z,29.77
2023-06-16T00:12:41.756Z,29.75
2023-06-16T00:13:41.595Z,29.78
2023-06-16T00:14:41.639Z,29.75
2023-06-16T00:15:41.607Z,29.75
2023-06-16T00:16:41.632Z,29.76
2023-06-16T00:17:41.658Z,29.75
2023-06-16T00:18:41.605Z,29.77
2023-06-16T00:19:41.652Z,29.79
2023-06-16T00:20:41.639Z,29.79
2023-06-16T00:21:41.643Z,29.80
2023-06-16T00:22:41.653Z,29.76
2023-06-16T00:23:41.661Z,29.77
2023-06-16T00:24:41.666Z,29.77
2023-06-16T00:25:41.668Z,29.80
2023-06-16T00:26:41.675Z,29.80
2023-06-16T00:27:41.686Z,29.84
2023-06-16T00:28:41.691Z,29.91
2023-06-16T00:29:41.663Z,29.85
2023-06-16T00:30:41.703Z,29.81
2023-06-16T00:31:41.734Z,29.82
2023-06-16T00:32:41.880Z,29.85
2023-06-16T00:33:41.687Z,29.83
2023-06-16T00:34:41.683Z,29.84
2023-06-16T00:35:41.688Z,29.83
2023-06-16T00:36:41.696Z,29.88
2023-06-16T00:37:41.778Z,29.86
2023-06-16T00:38:41.683Z,29.84
2023-06-16T00:39:41.660Z,29.83
2023-06-16T00:40:41.665Z,29.86
2023-06-16T00:41:41.668Z,29.85
2023-06-16T00:42:41.676Z,29.88
2023-06-16T00:43:41.674Z,29.87
2023-06-16T00:44:41.691Z,29.88
2023-06-16T00:45:41.666Z,29.89
2023-06-16T00:46:41.765Z,29.91
2023-06-16T00:47:41.670Z,29.93
2023-06-16T00:48:41.686Z,29.90
2023-06-16T00:49:41.685Z,29.89
2023-06-16T00:50:41.683Z,29.94
2023-06-16T00:51:41.705Z,29.96
2023-06-16T00:52:41.686Z,30.00
2023-06-16T00:53:41.682Z,29.96
2023-06-16T00:54:41.673Z,29.92
2023-06-16T00:55:41.683Z,29.92
2023-06-16T00:56:41.697Z,29.97
2023-06-16T00:57:41.699Z,29.95
2023-06-16T00:58:41.707Z,29.91
2023-06-16T00:59:41.690Z,29.96
2023-06-16T01:00:41.688Z,29.99
2023-06-16T01:01:41.736Z,29.94
2023-06-16T01:02:41.779Z,29.94
2023-06-16T01:03:41.685Z,29.95
2023-06-16T01:04:41.700Z,30.00
2023-06-16T01:05:41.716Z,29.98
2023-06-16T01:06:41.701Z,30.00
2023-06-16T01:07:41.796Z,30.03
2023-06-16T01:08:41.732Z,30.03
2023-06-16T01:09:41.735Z,30.05
2023-06-16T01:10:41.733Z,30.00
2023-06-16T01:11:41.738Z,29.97
2023-06-16T01:12:41.731Z,29.99
2023-06-16T01:13:41.713Z,30.00
2023-06-16T01:14:41.754Z,30.00
2023-06-16T01:15:41.756Z,30.00
2023-06-16T01:16:41.766Z,30.01
2023-06-16T01:17:41.792Z,29.98
2023-06-16T01:18:41.788Z,30.03
2023-06-16T01:19:41.793Z,30.02
2023-06-16T01:20:41.799Z,30.04
2023-06-16T01:21:41.810Z,30.03
2023-06-16T01:22:41.765Z,30.05
2023-06-16T01:23:41.742Z,30.09
2023-06-16T01:24:41.758Z,30.05
2023-06-16T01:25:41.719Z,30.06
2023-06-16T01:26:41.774Z,30.07
2023-06-16T01:27:41.733Z,30.01
2023-06-16T01:28:41.791Z,30.09
2023-06-16T01:29:41.757Z,30.01
2023-06-16T01:30:41.763Z,30.11
2023-06-16T01:31:41.773Z,30.09
2023-06-16T01:32:41.789Z,30.09
2023-06-16T01:33:41.812Z,30.09
2023-06-16T01:34:41.784Z,30.10
2023-06-16T01:35:41.788Z,30.08
2023-06-16T01:36:41.797Z,30.09
2023-06-16T01:37:41.770Z,30.13
2023-06-16T01:38:41.787Z,30.11
2023-06-16T01:39:41.899Z,30.13
2023-06-16T01:40:41.842Z,30.10
2023-06-16T01:41:41.881Z,30.11
2023-06-16T01:42:41.809Z,30.14
2023-06-16T01:43:41.809Z,30.12
2023-06-16T01:44:41.820Z,30.14
2023-06-16T01:45:41.820Z,30.05
2023-06-16T01:46:41.896Z,30.14
2023-06-16T01:47:41.891Z,30.08
2023-06-16T01:48:41.849Z,30.17
2023-06-16T01:49:41.825Z,30.16
2023-06-16T01:50:41.819Z,30.12
2023-06-16T01:51:41.873Z,30.12
2023-06-16T01:52:41.874Z,30.10
2023-06-16T01:53:41.872Z,30.14
2023-06-16T01:54:41.891Z,30.18
2023-06-16T01:55:41.898Z,30.21
2023-06-16T01:56:41.966Z,30.17
2023-06-16T01:57:41.914Z,30.18
2023-06-16T01:58:41.885Z,30.15
2023-06-16T01:59:41.930Z,30.20
2023-06-16T02:00:41.922Z,30.16
2023-06-16T02:01:41.891Z,30.17
2023-06-16T02:02:42.016Z,30.15
2023-06-16T02:03:41.995Z,30.16
2023-06-16T02:04:41.955Z,30.18
2023-06-16T02:05:41.928Z,30.17
2023-06-16T02:06:41.973Z,30.17
2023-06-16T02:07:41.980Z,30.19
2023-06-16T02:08:42.023Z,30.18
2023-06-16T02:09:42.003Z,30.19
2023-06-16T02:10:42.032Z,30.21
2023-06-16T02:11:42.026Z,30.27
2023-06-16T02:12:42.003Z,30.21
2023-06-16T02:13:42.164Z,30.21
2023-06-16T02:14:42.037Z,30.23
2023-06-16T02:15:42.095Z,30.21
2023-06-16T02:16:42.087Z,30.17
2023-06-16T02:17:42.107Z,30.26
2023-06-16T02:18:42.090Z,30.23
2023-06-16T02:19:42.172Z,30.12
2023-06-16T02:20:42.116Z,30.18
2023-06-16T02:21:42.129Z,30.24
2023-06-16T02:22:42.106Z,30.24
2023-06-16T02:23:42.113Z,30.26
2023-06-16T02:24:42.148Z,30.24
2023-06-16T02:25:42.145Z,30.25
2023-06-16T02:26:42.214Z,30.20
2023-06-16T02:27:42.223Z,30.27
2023-06-16T02:28:42.193Z,30.24
2023-06-16T02:29:42.234Z,30.28
2023-06-16T02:30:42.225Z,30.24
2023-06-16T02:31:42.397Z,30.31
2023-06-16T02:32:49.704Z,30.21
2023-06-16T02:33:43.240Z,30.20
2023-06-16T02:34:42.222Z,30.24
2023-06-16T02:35:42.223Z,30.28
2023-06-16T02:36:42.222Z,30.34
2023-06-16T02:37:42.217Z,30.29
2023-06-16T02:38:42.192Z,30.29
2023-06-16T02:39:42.204Z,30.29
2023-06-16T02:40:42.193Z,30.34
2023-06-16T02:41:42.171Z,30.28
2023-06-16T02:42:42.190Z,30.31
2023-06-16T02:43:42.159Z,30.30
2023-06-16T02:44:42.156Z,30.13
2023-06-16T02:45:42.151Z,30.01
2023-06-16T02:46:42.195Z,30.21
2023-06-16T02:47:42.133Z,30.33
2023-06-16T02:48:42.120Z,30.25
2023-06-16T02:49:42.130Z,30.30
2023-06-16T02:50:42.109Z,30.27
2023-06-16T02:51:42.107Z,30.36
2023-06-16T02:52:42.134Z,30.32
2023-06-16T02:53:42.099Z,30.35
2023-06-16T02:54:42.085Z,30.32
2023-06-16T02:55:42.109Z,30.36
2023-06-16T02:56:42.073Z,30.35
2023-06-16T02:57:42.088Z,30.35
2023-06-16T02:58:42.065Z,30.33
2023-06-16T02:59:42.064Z,30.39
2023-06-16T03:00:42.123Z,30.38
2023-06-16T03:01:42.075Z,30.34
2023-06-16T03:02:42.124Z,30.29
2023-06-16T03:03:42.143Z,30.32
2023-06-16T03:04:42.133Z,30.29
2023-06-16T03:05:42.137Z,30.36
2023-06-16T03:06:42.230Z,30.37
2023-06-16T03:07:42.136Z,30.39
2023-06-16T03:08:42.185Z,30.36
2023-06-16T03:09:42.225Z,30.35
2023-06-16T03:10:42.221Z,30.34
2023-06-16T03:11:42.378Z,30.28
2023-06-16T03:12:42.258Z,30.29
2023-06-16T03:13:42.264Z,30.19
2023-06-16T03:14:42.265Z,30.17
2023-06-16T03:15:42.348Z,30.08
2023-06-16T03:16:42.368Z,30.08
2023-06-16T03:17:42.371Z,30.07
2023-06-16T03:18:42.329Z,30.07
2023-06-16T03:19:42.340Z,30.11
2023-06-16T03:20:42.347Z,30.20
2023-06-16T03:21:42.341Z,30.18
2023-06-16T03:22:42.429Z,30.29
2023-06-16T03:23:42.381Z,30.15
2023-06-16T03:24:42.442Z,30.19
2023-06-16T03:25:42.467Z,30.30
2023-06-16T03:26:42.485Z,30.16
2023-06-16T03:27:42.532Z,30.27
2023-06-16T03:28:42.572Z,30.21
2023-06-16T03:29:42.526Z,30.26
2023-06-16T03:30:42.563Z,30.22
2023-06-16T03:31:42.602Z,30.21
2023-06-16T03:32:42.616Z,30.20
2023-06-16T03:33:42.619Z,30.25
2023-06-16T03:34:42.640Z,30.30
2023-06-16T03:35:42.652Z,30.36
2023-06-16T03:36:42.653Z,30.17
2023-06-16T03:37:42.666Z,30.25
2023-06-16T03:38:42.740Z,30.29
2023-06-16T03:39:42.810Z,30.34
2023-06-16T03:40:42.768Z,30.32
2023-06-16T03:41:42.778Z,30.32
2023-06-16T03:42:42.804Z,30.33
2023-06-16T03:43:42.816Z,30.14
2023-06-16T03:44:42.838Z,30.15
2023-06-16T03:45:42.928Z,30.27
2023-06-16T03:46:42.892Z,30.28
2023-06-16T03:47:42.973Z,30.16
2023-06-16T03:48:42.932Z,30.26
2023-06-16T03:49:42.916Z,30.33
2023-06-16T03:50:42.949Z,30.21
2023-06-16T03:51:42.998Z,30.22
2023-06-16T03:52:43.003Z,30.21
2023-06-16T03:53:43.010Z,30.25
2023-06-16T03:54:43.088Z,30.20
2023-06-16T03:55:43.051Z,30.25
2023-06-16T03:56:43.104Z,30.16
2023-06-16T03:57:43.113Z,30.14
2023-06-16T03:58:43.109Z,30.32
2023-06-16T03:59:43.165Z,30.27
2023-06-16T04:00:43.161Z,30.39
2023-06-16T04:01:43.188Z,30.48
2023-06-16T04:02:43.254Z,30.52
2023-06-16T04:03:43.299Z,30.65
2023-06-16T04:04:43.251Z,30.73
2023-06-16T04:05:43.273Z,30.78
2023-06-16T04:06:43.300Z,30.87
2023-06-16T04:07:43.321Z,30.88
2023-06-16T04:08:43.338Z,30.85
2023-06-16T04:09:43.438Z,30.95
2023-06-16T04:10:43.484Z,30.91
2023-06-16T04:11:43.457Z,30.99
2023-06-16T04:12:43.483Z,30.95
2023-06-16T04:13:43.529Z,31.00
2023-06-16T04:14:43.569Z,31.01
2023-06-16T04:15:43.597Z,31.07
2023-06-16T04:16:43.805Z,31.07
2023-06-16T04:17:43.766Z,31.13
2023-06-16T04:18:43.686Z,31.17
2023-06-16T04:19:43.748Z,31.16
2023-06-16T04:20:43.770Z,31.15
2023-06-16T04:21:43.851Z,31.20
2023-06-16T04:22:43.854Z,31.21
2023-06-16T04:23:43.902Z,31.24
2023-06-16T04:24:43.905Z,31.31
2023-06-16T04:25:43.981Z,31.29
2023-06-16T04:26:43.993Z,31.33
2023-06-16T04:27:44.029Z,31.37
2023-06-16T04:28:44.054Z,31.36
2023-06-16T04:29:44.103Z,31.45
2023-06-16T04:30:44.289Z,31.52
2023-06-16T04:31:44.158Z,31.41
2023-06-16T04:32:44.293Z,31.41
2023-06-16T04:33:44.249Z,31.38
2023-06-16T04:34:44.382Z,31.23
2023-06-16T04:35:44.328Z,31.15
2023-06-16T04:36:44.374Z,31.11
2023-06-16T04:37:44.415Z,31.13
2023-06-16T04:38:44.424Z,31.03
2023-06-16T04:39:44.522Z,31.05
2023-06-16T04:40:44.520Z,31.01
2023-06-16T04:41:44.531Z,30.98
2023-06-16T04:42:44.565Z,30.95
2023-06-16T04:43:44.550Z,30.95
2023-06-16T04:44:44.564Z,30.91
2023-06-16T04:45:44.701Z,30.94
2023-06-16T04:46:44.722Z,30.89
2023-06-16T04:47:44.677Z,30.88
2023-06-16T04:48:44.747Z,30.87
2023-06-16T04:49:44.699Z,30.81
2023-06-16T04:50:44.735Z,30.82
2023-06-16T04:51:44.783Z,30.79
2023-06-16T04:52:44.834Z,30.72
2023-06-16T04:53:45.177Z,30.64
2023-06-16T04:54:44.844Z,30.56
2023-06-16T04:55:44.869Z,30.63
2023-06-16T04:56:44.891Z,30.45
2023-06-16T04:57:44.937Z,30.38
2023-06-16T04:58:44.913Z,30.39
2023-06-16T04:59:44.920Z,30.35
2023-06-16T05:00:44.974Z,30.25
2023-06-16T05:01:44.990Z,30.16
2023-06-16T05:02:45.057Z,30.30
2023-06-16T05:03:45.104Z,30.33
2023-06-16T05:04:45.240Z,30.33
2023-06-16T05:05:45.020Z,30.43
2023-06-16T05:06:45.013Z,30.31
2023-06-16T05:07:45.051Z,30.50
2023-06-16T05:08:45.060Z,30.40
2023-06-16T05:09:45.076Z,30.28
2023-06-16T05:10:45.109Z,30.30
2023-06-16T05:11:45.088Z,30.38
2023-06-16T05:12:45.109Z,30.53
2023-06-16T05:13:45.125Z,30.36
2023-06-16T05:14:45.101Z,30.37
2023-06-16T05:15:45.108Z,30.47
2023-06-16T05:16:45.182Z,30.74
2023-06-16T05:17:45.239Z,30.58
2023-06-16T05:18:45.309Z,30.51
2023-06-16T05:19:45.164Z,30.54
2023-06-16T05:20:45.198Z,30.47
2023-06-16T05:21:45.175Z,30.60
2023-06-16T05:22:45.163Z,30.74
2023-06-16T05:23:45.248Z,30.72
2023-06-16T05:24:45.228Z,30.61
2023-06-16T05:25:45.214Z,30.57
2023-06-16T05:26:45.253Z,30.63
2023-06-16T05:27:45.233Z,30.54
2023-06-16T05:28:45.236Z,30.67
2023-06-16T05:29:45.279Z,30.59
2023-06-16T05:30:45.305Z,30.71
2023-06-16T05:31:45.271Z,30.55
2023-06-16T05:32:45.323Z,30.76
2023-06-16T05:33:45.304Z,31.58
2023-06-16T05:34:45.370Z,33.09
2023-06-16T05:35:45.354Z,34.01
2023-06-16T05:36:45.387Z,34.16
2023-06-16T05:37:45.453Z,34.51
2023-06-16T05:38:45.506Z,34.72
2023-06-16T05:39:45.496Z,34.71
2023-06-16T05:40:45.526Z,34.74
2023-06-16T05:41:45.554Z,34.75
2023-06-16T05:42:45.568Z,35.39
2023-06-16T05:43:45.662Z,35.70
2023-06-16T05:44:45.713Z,35.80
2023-06-16T05:45:46.062Z,36.06
2023-06-16T05:46:45.690Z,35.74
2023-06-16T05:47:45.700Z,35.92
2023-06-16T05:48:45.761Z,35.91
2023-06-16T05:49:45.825Z,35.85
2023-06-16T05:50:45.837Z,35.86
2023-06-16T05:51:45.853Z,35.71
2023-06-16T05:52:45.868Z,35.51
2023-06-16T05:53:45.869Z,35.54
2023-06-16T05:54:45.940Z,35.59
2023-06-16T05:55:45.977Z,35.52
2023-06-16T05:56:46.023Z,35.42
2023-06-16T05:57:46.126Z,35.31
2023-06-16T05:58:46.160Z,35.33
2023-06-16T05:59:46.150Z,35.29
2023-06-16T06:00:46.531Z,35.16
2023-06-16T06:01:46.161Z,35.21
2023-06-16T06:03:46.391Z,34.93
2023-06-16T06:04:46.226Z,34.72
2023-06-16T06:05:46.253Z,35.03
2023-06-16T06:06:46.208Z,34.79
2023-06-16T06:07:46.253Z,35.03
2023-06-16T06:08:46.227Z,35.02
2023-06-16T06:09:46.182Z,35.04
2023-06-16T06:10:46.176Z,34.92
2023-06-16T06:11:46.241Z,34.77
2023-06-16T06:12:46.229Z,34.97
2023-06-16T06:13:46.556Z,34.94
2023-06-16T06:14:46.200Z,34.74
2023-06-16T06:15:46.285Z,34.69
2023-06-16T06:16:46.436Z,34.82
2023-06-16T06:17:46.427Z,34.80
2023-06-16T06:18:46.478Z,34.77
2023-06-16T06:19:46.536Z,34.74
2023-06-16T06:20:46.577Z,34.70
2023-06-16T06:21:46.686Z,34.80
2023-06-16T06:22:48.796Z,34.78
2023-06-16T06:23:46.821Z,34.93
2023-06-16T06:24:47.034Z,34.95
2023-06-16T06:25:46.864Z,34.89
2023-06-16T06:26:46.887Z,34.82
2023-06-16T06:27:46.932Z,34.74
2023-06-16T06:28:46.972Z,34.63
2023-06-16T06:29:47.013Z,34.73
2023-06-16T06:30:47.027Z,34.68
2023-06-16T06:31:47.544Z,34.70
2023-06-16T06:32:47.232Z,34.64
2023-06-16T06:33:47.147Z,34.62
2023-06-16T06:34:47.221Z,34.56
2023-06-16T06:35:47.230Z,34.52
2023-06-16T06:36:47.539Z,34.48
2023-06-16T06:37:47.263Z,34.68
2023-06-16T06:38:47.282Z,34.67
2023-06-16T06:39:47.351Z,34.49
2023-06-16T06:40:47.319Z,34.61
2023-06-16T06:41:47.355Z,34.52
2023-06-16T06:42:47.374Z,34.48
2023-06-16T06:43:47.446Z,34.43
2023-06-16T06:44:47.419Z,34.57
2023-06-16T06:45:47.439Z,34.55
2023-06-16T06:46:47.537Z,34.54
2023-06-16T06:47:47.466Z,34.48
2023-06-16T06:48:47.522Z,34.28
2023-06-16T06:49:47.461Z,34.49
2023-06-16T06:50:47.454Z,34.44
2023-06-16T06:51:47.500Z,34.63
2023-06-16T06:52:47.472Z,34.63
2023-06-16T06:53:47.488Z,34.46
2023-06-16T06:54:47.443Z,34.49
2023-06-16T06:55:47.462Z,34.54
2023-06-16T06:56:47.470Z,34.53
2023-06-16T06:57:47.475Z,34.49
2023-06-16T06:58:47.489Z,34.44
2023-06-16T06:59:47.503Z,34.28
2023-06-16T07:00:47.471Z,34.28
2023-06-16T07:01:47.532Z,34.30
2023-06-16T07:02:47.588Z,34.42
2023-06-16T07:03:47.671Z,34.21
2023-06-16T07:04:47.539Z,34.31
2023-06-16T07:05:47.560Z,34.39
2023-06-16T07:06:47.641Z,34.28
2023-06-16T07:07:47.641Z,34.40
2023-06-16T07:08:47.699Z,34.16
2023-06-16T07:09:47.760Z,34.22
2023-06-16T07:10:47.802Z,34.36
2023-06-16T07:11:47.861Z,34.33
2023-06-16T07:12:47.914Z,34.38
2023-06-16T07:13:47.990Z,34.31
2023-06-16T07:14:48.032Z,34.33
2023-06-16T07:15:48.134Z,34.33
2023-06-16T07:16:48.183Z,34.34
2023-06-16T07:17:48.276Z,34.30
2023-06-16T07:18:48.305Z,34.33
2023-06-16T07:19:48.307Z,34.34
2023-06-16T07:20:48.433Z,34.36
2023-06-16T07:21:48.496Z,34.30
2023-06-16T07:22:48.596Z,34.29
2023-06-16T07:23:48.588Z,34.31
2023-06-16T07:24:48.650Z,34.19
2023-06-16T07:25:48.697Z,34.23
2023-06-16T07:26:48.727Z,34.16
2023-06-16T07:27:49.200Z,34.28
2023-06-16T07:28:49.058Z,34.14
2023-06-16T07:29:48.820Z,34.24
2023-06-16T07:30:48.863Z,34.10
2023-06-16T07:31:48.936Z,34.18
2023-06-16T07:32:49.026Z,34.51
2023-06-16T07:33:49.059Z,34.44
2023-06-16T07:34:49.076Z,34.36
2023-06-16T07:35:49.123Z,34.02
2023-06-16T07:36:49.142Z,33.98
2023-06-16T07:37:49.149Z,33.81
2023-06-16T07:38:49.172Z,33.69
2023-06-16T07:39:49.322Z,33.63
2023-06-16T07:40:49.333Z,33.52
2023-06-16T07:41:49.377Z,33.44
2023-06-16T07:42:49.433Z,33.39
2023-06-16T07:43:49.520Z,33.28
2023-06-16T07:44:49.468Z,33.25
2023-06-16T07:45:49.577Z,33.15
2023-06-16T07:46:49.626Z,33.12
2023-06-16T07:47:49.809Z,33.05
2023-06-16T07:48:49.708Z,33.01
2023-06-16T07:49:49.740Z,32.94
2023-06-16T07:50:49.945Z,32.92
2023-06-16T07:51:49.853Z,32.86
2023-06-16T07:52:49.957Z,32.84
2023-06-16T07:53:49.966Z,32.76
2023-06-16T07:54:50.071Z,32.80
2023-06-16T07:55:50.569Z,32.71
2023-06-16T07:56:50.169Z,32.67
2023-06-16T07:57:50.342Z,32.65
2023-06-16T07:58:50.277Z,32.62
2023-06-16T07:59:50.354Z,32.56
2023-06-16T08:00:50.422Z,32.54
2023-06-16T08:01:50.575Z,32.54
2023-06-16T08:02:50.624Z,32.53
2023-06-16T08:03:50.689Z,32.50
2023-06-16T08:04:50.675Z,32.48
2023-06-16T08:05:50.676Z,32.43
2023-06-16T08:06:50.824Z,32.40
2023-06-16T08:07:50.772Z,32.39
2023-06-16T08:08:50.920Z,32.39
2023-06-16T08:09:50.945Z,32.39
2023-06-16T08:10:50.948Z,32.38
2023-06-16T08:11:50.993Z,32.36
2023-06-16T08:12:51.065Z,32.34
2023-06-16T08:13:51.119Z,32.36
2023-06-16T08:14:51.187Z,32.30
2023-06-16T08:15:51.274Z,32.30
2023-06-16T08:16:51.292Z,32.28
2023-06-16T08:17:51.379Z,32.30
2023-06-16T08:18:51.363Z,32.31
2023-06-16T08:19:51.453Z,32.26
2023-06-16T08:20:51.496Z,32.25
2023-06-16T08:21:51.555Z,32.27
2023-06-16T08:22:51.709Z,32.25
2023-06-16T08:23:51.685Z,32.25
2023-06-16T08:24:52.110Z,32.23
2023-06-16T08:25:52.095Z,32.23
2023-06-16T08:26:51.831Z,32.42
2023-06-16T08:27:51.924Z,32.21
2023-06-16T08:28:51.925Z,32.48
2023-06-16T08:29:51.967Z,32.64
2023-06-16T08:30:52.056Z,33.06
2023-06-16T08:31:52.018Z,33.45
2023-06-16T08:32:52.048Z,33.73
2023-06-16T08:33:52.025Z,33.79
2023-06-16T08:34:52.104Z,34.04
2023-06-16T08:35:52.167Z,34.30
2023-06-16T08:36:52.184Z,34.46
2023-06-16T08:37:52.610Z,34.27
2023-06-16T08:38:52.329Z,34.54
2023-06-16T08:39:52.391Z,34.65
2023-06-16T08:40:52.444Z,34.57
2023-06-16T08:41:52.410Z,34.46
2023-06-16T08:42:52.455Z,34.42
2023-06-16T08:43:52.452Z,34.51
2023-06-16T08:44:52.511Z,34.49
2023-06-16T08:45:52.517Z,34.24
2023-06-16T08:46:54.032Z,34.29
2023-06-16T08:47:52.780Z,34.28
2023-06-16T08:48:52.573Z,34.39
2023-06-16T08:49:52.620Z,34.26
2023-06-16T08:50:52.605Z,34.22
2023-06-16T08:51:53.653Z,34.30
2023-06-16T08:52:52.746Z,34.28
2023-06-16T08:53:53.142Z,34.26
2023-06-16T08:54:52.635Z,34.43
2023-06-16T08:55:52.642Z,34.49
2023-06-16T08:56:52.659Z,34.66
2023-06-16T08:57:53.116Z,34.49
2023-06-16T08:58:52.653Z,34.49
2023-06-16T08:59:53.126Z,34.29
2023-06-16T09:00:52.617Z,34.20
2023-06-16T09:01:53.108Z,34.08
2023-06-16T09:02:52.720Z,33.99
2023-06-16T09:03:52.699Z,33.97
2023-06-16T09:04:52.688Z,33.90
2023-06-16T09:05:52.661Z,33.86
2023-06-16T09:06:53.100Z,33.79
2023-06-16T09:07:52.620Z,33.75
2023-06-16T09:08:52.651Z,33.64
2023-06-16T09:09:52.698Z,33.58
2023-06-16T09:10:52.744Z,33.54
2023-06-16T09:11:52.658Z,33.49
2023-06-16T09:12:52.659Z,33.42
2023-06-16T09:13:53.394Z,33.38
2023-06-16T09:14:52.668Z,33.35
2023-06-16T09:15:52.672Z,33.30
2023-06-16T09:16:52.753Z,33.33
2023-06-16T09:17:52.733Z,33.34
2023-06-16T09:18:52.750Z,33.26
2023-06-16T09:19:52.718Z,33.17
2023-06-16T09:20:52.685Z,33.13
2023-06-16T09:21:52.723Z,33.10
2023-06-16T09:22:52.690Z,33.08
2023-06-16T09:23:52.699Z,33.05
2023-06-16T09:24:52.702Z,33.00
2023-06-16T09:25:52.681Z,32.97
2023-06-16T09:26:52.719Z,32.97
2023-06-16T09:27:52.711Z,32.98
2023-06-16T09:28:53.143Z,32.91
2023-06-16T09:29:52.681Z,32.88
2023-06-16T09:31:06.882Z,32.84
2023-06-16T09:31:53.669Z,32.84
2023-06-16T09:32:52.711Z,32.90
2023-06-16T09:33:52.663Z,32.89
2023-06-16T09:34:53.122Z,32.88
2023-06-16T09:35:52.686Z,32.87
2023-06-16T09:36:52.709Z,32.84
2023-06-16T09:37:52.694Z,32.81
2023-06-16T09:38:52.622Z,32.85
2023-06-16T09:39:52.650Z,32.85
2023-06-16T09:40:52.603Z,32.82
2023-06-16T09:41:53.615Z,32.82
2023-06-16T09:42:52.645Z,32.80
2023-06-16T09:43:52.594Z,32.80
2023-06-16T09:44:52.572Z,32.79
2023-06-16T09:45:52.615Z,32.79
2023-06-16T09:46:53.137Z,32.76
2023-06-16T09:47:52.657Z,32.78
2023-06-16T09:48:52.565Z,32.79
2023-06-16T09:49:52.562Z,32.76
2023-06-16T09:50:52.581Z,32.75
2023-06-16T09:51:52.619Z,32.76
2023-06-16T09:52:52.648Z,32.74
2023-06-16T09:53:52.738Z,32.75
2023-06-16T09:54:52.733Z,32.74
2023-06-16T09:55:52.811Z,32.73
2023-06-16T09:56:52.893Z,32.72
2023-06-16T09:57:52.926Z,32.74
2023-06-16T09:58:52.963Z,32.72
2023-06-16T09:59:53.035Z,32.68
2023-06-16T10:00:53.055Z,32.70
2023-06-16T10:01:53.071Z,32.71
2023-06-16T10:02:53.277Z,32.71
2023-06-16T10:03:53.259Z,32.70
2023-06-16T10:04:53.223Z,32.72
2023-06-16T10:05:53.281Z,32.69
2023-06-16T10:06:53.332Z,32.72
2023-06-16T10:07:53.368Z,32.70
2023-06-16T10:08:53.457Z,32.65
2023-06-16T10:10:53.540Z,32.63
2023-06-16T10:11:53.619Z,32.63
2023-06-16T10:12:53.631Z,32.61
2023-06-16T10:13:53.492Z,32.56
2023-06-16T10:14:53.449Z,32.55
2023-06-16T10:15:53.478Z,32.56
2023-06-16T10:16:53.477Z,32.56
2023-06-16T10:17:53.585Z,32.54
2023-06-16T10:18:53.503Z,32.55
2023-06-16T10:19:53.416Z,32.55
2023-06-16T10:20:53.422Z,32.56
2023-06-16T10:21:53.430Z,32.56
2023-06-16T10:22:53.413Z,32.60
2023-06-16T10:23:53.492Z,32.65
2023-06-16T10:24:53.408Z,32.61
2023-06-16T10:25:53.401Z,32.63
2023-06-16T10:26:53.400Z,32.61
2023-06-16T10:27:53.638Z,32.63
2023-06-16T10:28:53.401Z,32.64
2023-06-16T10:29:53.387Z,32.62
2023-06-16T10:30:53.413Z,32.65
2023-06-16T10:31:53.339Z,32.64
2023-06-16T10:32:53.438Z,32.69
2023-06-16T10:33:53.324Z,32.69
2023-06-16T10:34:53.364Z,32.74
2023-06-16T10:36:00.532Z,32.81
2023-06-16T10:36:54.325Z,32.84
2023-06-16T10:37:53.304Z,32.88
2023-06-16T10:38:53.408Z,32.86
2023-06-16T10:39:53.630Z,32.88
2023-06-16T10:40:55.440Z,32.93
2023-06-16T10:41:53.325Z,32.95
2023-06-16T10:42:53.314Z,32.94
2023-06-16T10:43:53.278Z,32.97
2023-06-16T10:44:53.326Z,32.98
2023-06-16T10:45:53.337Z,32.98
2023-06-16T10:46:53.360Z,32.98
2023-06-16T10:47:53.407Z,33.00
2023-06-16T10:48:53.217Z,33.00
2023-06-16T10:49:53.240Z,33.00
2023-06-16T10:50:53.239Z,33.00
2023-06-16T10:51:53.245Z,33.03
2023-06-16T10:52:53.245Z,33.03
2023-06-16T10:53:53.231Z,33.16
2023-06-16T10:54:53.222Z,33.19
2023-06-16T10:55:53.227Z,33.18
2023-06-16T10:57:06.833Z,33.18
2023-06-16T10:57:54.672Z,33.19
2023-06-16T10:58:53.212Z,33.24
2023-06-16T10:59:53.152Z,33.32
2023-06-16T11:00:53.154Z,33.30
2023-06-16T11:01:53.238Z,33.43
2023-06-16T11:02:53.356Z,33.81
2023-06-16T11:03:55.678Z,33.78
2023-06-16T11:04:53.114Z,33.90
2023-06-16T11:05:53.120Z,34.05
2023-06-16T11:07:03.243Z,34.12
2023-06-16T11:07:54.269Z,34.32
2023-06-16T11:08:53.106Z,34.27
2023-06-16T11:09:53.120Z,34.43
2023-06-16T11:10:53.075Z,34.59
2023-06-16T11:11:53.093Z,34.90
2023-06-16T11:12:53.159Z,34.87
2023-06-16T11:13:53.086Z,34.91
2023-06-16T11:14:53.194Z,35.17
2023-06-16T11:15:53.110Z,34.98
2023-06-16T11:16:53.094Z,35.05
2023-06-16T11:17:53.164Z,34.53
2023-06-16T11:18:53.117Z,34.53
2023-06-16T11:19:53.223Z,34.61
2023-06-16T11:20:53.176Z,34.47
2023-06-16T11:21:53.180Z,34.55
2023-06-16T11:22:53.104Z,34.83
2023-06-16T11:23:53.155Z,34.94
2023-06-16T11:24:53.120Z,34.99
2023-06-16T11:25:53.142Z,34.56
2023-06-16T11:26:53.174Z,34.51
2023-06-16T11:27:53.209Z,34.48
2023-06-16T11:28:53.227Z,34.34
2023-06-16T11:29:53.294Z,34.30
2023-06-16T11:30:53.361Z,34.47
2023-06-16T11:31:53.343Z,34.56
2023-06-16T11:32:53.383Z,34.35
2023-06-16T11:33:53.349Z,34.52
2023-06-16T11:34:53.396Z,34.53
2023-06-16T11:35:53.472Z,34.55
2023-06-16T11:36:53.446Z,34.86
2023-06-16T11:37:53.517Z,35.03
2023-06-16T11:38:53.567Z,35.27
2023-06-16T11:39:53.575Z,35.21
2023-06-16T11:41:06.676Z,35.10
2023-06-16T11:42:01.793Z,35.16
2023-06-16T11:42:54.642Z,35.19
2023-06-16T11:43:53.598Z,35.06
2023-06-16T11:44:53.629Z,35.10
2023-06-16T11:45:53.598Z,35.27
2023-06-16T11:46:53.604Z,35.25
2023-06-16T11:47:53.601Z,35.45
2023-06-16T11:48:53.572Z,35.39
2023-06-16T11:49:53.559Z,35.50
2023-06-16T11:50:53.667Z,35.64
2023-06-16T11:51:53.551Z,35.76
2023-06-16T11:52:53.555Z,35.81
2023-06-16T11:53:53.600Z,35.90
2023-06-16T11:54:53.530Z,35.90
2023-06-16T11:55:53.508Z,35.89
2023-06-16T11:56:53.519Z,35.99
2023-06-16T11:57:53.511Z,35.97
2023-06-16T11:58:53.481Z,35.89
2023-06-16T11:59:53.490Z,36.17
2023-06-16T12:00:53.510Z,36.34
2023-06-16T12:01:53.515Z,36.54
2023-06-16T12:02:53.531Z,36.37
2023-06-16T12:04:05.039Z,36.29
2023-06-16T12:04:54.482Z,36.35
2023-06-16T12:05:53.549Z,36.17
2023-06-16T12:06:53.457Z,36.08
2023-06-16T12:07:53.448Z,36.16
2023-06-16T12:08:53.433Z,36.08
2023-06-16T12:09:53.468Z,36.03
2023-06-16T12:10:53.439Z,35.95
2023-06-16T12:11:53.423Z,35.87
2023-06-16T12:12:53.438Z,35.91
2023-06-16T12:13:53.386Z,35.88
2023-06-16T12:14:53.449Z,36.13
2023-06-16T12:15:53.492Z,36.21
2023-06-16T12:16:53.507Z,36.24
2023-06-16T12:17:53.619Z,36.36
2023-06-16T12:18:53.601Z,36.37
2023-06-16T12:19:53.656Z,36.32
2023-06-16T12:20:53.709Z,36.23
2023-06-16T12:21:53.907Z,36.04
2023-06-16T12:22:53.835Z,35.87
2023-06-16T12:23:53.982Z,35.80
2023-06-16T12:24:53.971Z,35.76
2023-06-16T12:25:54.062Z,35.66
2023-06-16T12:26:54.312Z,35.59
2023-06-16T12:27:54.140Z,35.55
2023-06-16T12:28:54.384Z,35.65
2023-06-16T12:29:54.305Z,35.65
2023-06-16T12:30:54.365Z,35.74
2023-06-16T12:31:54.363Z,35.70
2023-06-16T12:32:55.757Z,35.68
2023-06-16T12:33:54.446Z,35.62
2023-06-16T12:34:54.471Z,35.56
2023-06-16T12:35:54.435Z,35.42
2023-06-16T12:36:54.424Z,35.45
2023-06-16T12:37:54.396Z,35.38
2023-06-16T12:38:54.388Z,35.36
2023-06-16T12:39:54.423Z,35.26
2023-06-16T12:40:54.399Z,35.25
2023-06-16T12:41:54.462Z,35.21
2023-06-16T12:42:54.413Z,35.14
2023-06-16T12:43:54.705Z,34.89
2023-06-16T12:44:54.375Z,34.88
2023-06-16T12:45:54.404Z,34.91
2023-06-16T12:46:54.338Z,34.74
2023-06-16T12:47:54.467Z,34.76
2023-06-16T12:48:54.368Z,34.75
2023-06-16T12:49:54.332Z,34.71
2023-06-16T12:50:54.350Z,34.60
2023-06-16T12:51:54.372Z,34.56
2023-06-16T12:52:54.349Z,34.46
2023-06-16T12:53:54.316Z,34.38
2023-06-16T12:54:54.281Z,34.28